Time;durP1;ratioP1;P1;durP2;ratioP2;P2;SDS_P1;SDS_P2;PMS_P1;PMS_P2;Temp;Humidity;BMP_temperature;BMP_pressure;BME280_temperature;BME280_humidity;BME280_pressure;Samples;Min_cycle;Max_cycle;Signal;HPM_P1;HPM_P2
2022/01/01 00:00:09;;;;;;;25.33;16.00;;;10.90;99.90;;;;;;5055408;28;20496;-47
2022/01/01 00:02:36;;;;;;;26.00;18.13;;;10.90;99.90;;;;;;5053620;28;20489;-48
2022/01/01 00:05:04;;;;;;;27.97;17.80;;;10.90;99.90;;;;;;5048580;28;20485;-47
2022/01/01 00:07:31;;;;;;;32.10;20.07;;;10.90;99.90;;;;;;5044791;28;20479;-47
2022/01/01 00:09:58;;;;;;;22.10;15.93;;;11.00;99.90;;;;;;5047318;28;21051;-47
2022/01/01 00:12:24;;;;;;;27.47;17.70;;;11.00;99.90;;;;;;5049273;28;20482;-47
2022/01/01 00:14:53;;;;;;;27.77;16.53;;;11.00;99.90;;;;;;5048954;28;20528;-47
2022/01/01 00:17:19;;;;;;;24.30;17.50;;;11.00;99.90;;;;;;5047137;28;21181;-48
2022/01/01 00:19:46;;;;;;;32.17;17.80;;;11.00;99.90;;;;;;5047006;28;21054;-47
2022/01/01 00:22:13;;;;;;;33.67;17.33;;;11.10;99.90;;;;;;5044751;28;20916;-47
2022/01/01 00:24:39;;;;;;;29.10;17.20;;;11.10;99.90;;;;;;5051923;28;20490;-47
2022/01/01 00:27:06;;;;;;;25.17;16.63;;;11.10;99.90;;;;;;5044742;28;20484;-46
2022/01/01 00:29:33;;;;;;;23.50;16.93;;;11.20;99.90;;;;;;5048205;28;20972;-47
2022/01/01 00:32:01;;;;;;;25.13;15.23;;;11.30;99.90;;;;;;5047744;28;20474;-47
2022/01/01 00:34:27;;;;;;;26.17;17.43;;;11.30;99.90;;;;;;5047948;28;20664;-47
2022/01/01 00:36:54;;;;;;;28.80;18.47;;;11.40;99.90;;;;;;5045066;28;20547;-47
2022/01/01 00:39:21;;;;;;;32.20;18.37;;;11.40;99.90;;;;;;5046753;28;20478;-47
2022/01/01 00:41:48;;;;;;;31.70;19.67;;;11.40;99.90;;;;;;5042599;28;20569;-47
2022/01/01 00:44:14;;;;;;;31.93;18.87;;;11.30;99.90;;;;;;5043768;28;20785;-48
2022/01/01 00:46:41;;;;;;;27.33;17.50;;;11.30;99.90;;;;;;5039297;28;20982;-48
2022/01/01 00:49:09;;;;;;;27.47;16.70;;;11.30;99.90;;;;;;5055949;28;20552;-48
2022/01/01 00:51:36;;;;;;;30.30;19.47;;;11.30;99.90;;;;;;5034763;28;20486;-47
2022/01/01 00:54:02;;;;;;;28.93;17.70;;;11.30;99.90;;;;;;5037426;28;21022;-47
2022/01/01 00:56:29;;;;;;;33.20;19.67;;;11.20;99.90;;;;;;5043750;28;20894;-47
2022/01/01 00:58:56;;;;;;;29.87;18.03;;;11.20;99.90;;;;;;5044722;28;20850;-47
2022/01/01 01:01:22;;;;;;;24.27;17.37;;;11.10;99.90;;;;;;5046634;28;20594;-47
2022/01/01 01:03:49;;;;;;;26.23;17.40;;;11.20;99.90;;;;;;5039505;28;20478;-48
2022/01/01 01:06:17;;;;;;;24.83;17.40;;;11.20;99.90;;;;;;5043874;28;20529;-47
2022/01/01 01:08:43;;;;;;;29.37;16.70;;;11.20;99.90;;;;;;5044081;28;21346;-47
2022/01/01 01:11:10;;;;;;;32.83;19.00;;;11.20;99.90;;;;;;5043748;28;21058;-47
2022/01/01 01:13:39;;;;;;;32.63;17.27;;;11.10;99.90;;;;;;5040069;28;20890;-47
2022/01/01 01:16:06;;;;;;;31.50;18.60;;;11.10;99.90;;;;;;5065945;27;20944;-47
2022/01/01 01:18:33;;;;;;;25.77;17.17;;;11.10;99.90;;;;;;5055204;28;20528;-47
2022/01/01 01:21:00;;;;;;;28.13;17.30;;;11.10;99.90;;;;;;5038123;28;20485;-48
2022/01/01 01:23:28;;;;;;;33.73;18.10;;;11.10;99.90;;;;;;5065830;28;20509;-48
2022/01/01 01:25:56;;;;;;;28.70;18.53;;;11.00;99.90;;;;;;5047050;28;20475;-47
2022/01/01 01:28:23;;;;;;;28.20;17.50;;;11.00;99.90;;;;;;5048783;28;20889;-47
2022/01/01 01:30:50;;;;;;;26.70;17.03;;;11.00;99.90;;;;;;5029677;28;20964;-47
2022/01/01 01:33:16;;;;;;;30.67;20.07;;;11.00;99.90;;;;;;5062733;28;20574;-47
2022/01/01 01:35:43;;;;;;;31.37;18.80;;;11.00;99.90;;;;;;5027111;28;20511;-47
2022/01/01 01:38:10;;;;;;;34.80;20.03;;;11.00;99.90;;;;;;5045687;28;20514;-47
2022/01/01 01:40:37;;;;;;;30.83;21.40;;;10.90;99.90;;;;;;5042986;28;20485;-47
2022/01/01 01:43:09;;;;;;;34.50;22.03;;;10.80;99.90;;;;;;5049988;28;20749;-47
2022/01/01 01:45:36;;;;;;;32.63;20.07;;;10.80;99.90;;;;;;5056005;28;20475;-47
2022/01/01 01:48:04;;;;;;;28.70;17.93;;;10.80;99.90;;;;;;5062325;27;20483;-47
2022/01/01 01:50:33;;;;;;;29.53;19.20;;;10.80;99.90;;;;;;5050844;28;20872;-56
2022/01/01 01:53:01;;;;;;;33.30;17.77;;;10.80;99.90;;;;;;5048424;28;20485;-47
2022/01/01 01:55:28;;;;;;;30.00;17.87;;;10.90;99.90;;;;;;5054284;28;20478;-47
2022/01/01 01:57:57;;;;;;;32.20;19.90;;;11.00;99.90;;;;;;5049058;28;20754;-47
2022/01/01 02:00:52;;;;;;;33.10;18.70;;;11.00;99.90;;;;;;5041690;28;20504;-47
2022/01/01 02:03:19;;;;;;;34.27;20.80;;;11.00;99.90;;;;;;5037732;27;20880;-48
2022/01/01 02:05:47;;;;;;;34.17;19.80;;;11.00;99.90;;;;;;5076183;27;20913;-47
2022/01/01 02:08:17;;;;;;;30.73;19.97;;;10.90;99.90;;;;;;5046557;28;20719;-47
2022/01/01 02:10:46;;;;;;;31.50;19.37;;;10.90;99.90;;;;;;5051637;28;20480;-47
2022/01/01 02:13:20;;;;;;;35.00;21.57;;;10.90;99.90;;;;;;5047716;28;20697;-47
2022/01/01 02:16:01;;;;;;;32.60;19.20;;;10.90;99.90;;;;;;5046131;28;20914;-47
2022/01/01 02:18:27;;;;;;;38.73;22.60;;;11.00;99.90;;;;;;5048205;28;20565;-48
2022/01/01 02:20:58;;;;;;;41.57;24.67;;;11.00;99.90;;;;;;5045644;28;20815;-47
2022/01/01 02:23:26;;;;;;;42.63;26.07;;;10.90;99.90;;;;;;5055630;28;21004;-47
2022/01/01 02:25:55;;;;;;;43.10;25.60;;;10.80;99.90;;;;;;5058593;28;21054;-47
2022/01/01 02:28:22;;;;;;;43.73;29.07;;;10.70;99.90;;;;;;5050696;28;21208;-47
2022/01/01 02:30:50;;;;;;;43.90;25.47;;;10.60;99.90;;;;;;5039852;28;20478;-48
2022/01/01 02:33:17;;;;;;;38.93;24.37;;;10.60;99.90;;;;;;5070511;28;20494;-47
2022/01/01 02:35:44;;;;;;;32.00;20.90;;;10.60;99.90;;;;;;5054108;28;20462;-47
2022/01/01 02:38:12;;;;;;;34.07;20.57;;;10.60;99.90;;;;;;5047047;28;20814;-47
2022/01/01 02:40:39;;;;;;;33.07;19.60;;;10.60;99.90;;;;;;5047607;28;20493;-47
2022/01/01 02:43:06;;;;;;;28.13;17.23;;;10.60;99.90;;;;;;5059754;28;20489;-47
2022/01/01 02:45:33;;;;;;;28.40;18.13;;;10.70;99.90;;;;;;5060284;28;20569;-47
2022/01/01 02:47:59;;;;;;;27.17;17.77;;;10.70;99.90;;;;;;5059863;28;20531;-47
2022/01/01 02:50:26;;;;;;;32.97;19.43;;;10.70;99.90;;;;;;5055386;28;20904;-47
2022/01/01 02:52:53;;;;;;;23.57;14.87;;;10.70;99.90;;;;;;5050903;28;20481;-49
2022/01/01 02:55:21;;;;;;;27.60;15.97;;;10.70;99.90;;;;;;5063395;28;20535;-47
2022/01/01 02:57:47;;;;;;;23.80;13.87;;;10.80;99.90;;;;;;5048257;28;20546;-47
2022/01/01 03:00:16;;;;;;;20.47;13.73;;;10.90;99.90;;;;;;5059994;28;20886;-47
2022/01/01 03:02:45;;;;;;;20.33;12.50;;;11.00;99.90;;;;;;5050114;28;20485;-47
2022/01/01 03:05:11;;;;;;;22.87;13.00;;;10.90;99.90;;;;;;5052865;28;20518;-47
2022/01/01 03:07:39;;;;;;;18.73;13.10;;;11.00;99.90;;;;;;5032193;28;20548;-47
2022/01/01 03:10:06;;;;;;;21.20;13.33;;;11.00;99.90;;;;;;5071922;28;20500;-47
2022/01/01 03:12:34;;;;;;;17.07;12.30;;;11.00;99.90;;;;;;5047458;28;20518;-48
2022/01/01 03:15:01;;;;;;;18.03;12.43;;;11.00;99.90;;;;;;5059929;28;20511;-50
2022/01/01 03:17:28;;;;;;;21.50;12.50;;;11.00;99.90;;;;;;5061439;28;20486;-47
2022/01/01 03:19:55;;;;;;;22.73;12.50;;;11.00;99.90;;;;;;5059145;28;20477;-47
2022/01/01 03:22:21;;;;;;;18.10;12.80;;;11.10;99.90;;;;;;5052941;28;20482;-47
2022/01/01 03:24:49;;;;;;;17.37;12.03;;;11.10;99.90;;;;;;5065871;28;20510;-47
2022/01/01 03:27:15;;;;;;;15.20;12.03;;;11.10;99.90;;;;;;5058897;28;20972;-48
2022/01/01 03:29:43;;;;;;;23.00;13.50;;;11.00;99.90;;;;;;5060321;28;20490;-47
2022/01/01 03:32:10;;;;;;;19.73;11.60;;;11.00;99.90;;;;;;5055008;28;20489;-47
2022/01/01 03:34:37;;;;;;;15.77;11.50;;;11.10;99.90;;;;;;5057337;28;20566;-47
2022/01/01 03:37:04;;;;;;;16.93;9.90;;;11.20;99.90;;;;;;5044643;28;20494;-47
2022/01/01 03:39:30;;;;;;;14.27;11.07;;;11.00;99.90;;;;;;5056721;28;20494;-48
2022/01/01 03:41:57;;;;;;;18.90;11.13;;;10.90;99.90;;;;;;5053959;28;20487;-47
2022/01/01 03:44:24;;;;;;;16.20;11.33;;;10.80;99.90;;;;;;5058613;28;20494;-47
2022/01/01 03:46:58;;;;;;;16.60;10.70;;;10.70;99.90;;;;;;5055066;28;20490;-47
2022/01/01 03:49:24;;;;;;;15.50;10.70;;;10.70;99.90;;;;;;5059397;28;20510;-47
2022/01/01 03:51:51;;;;;;;14.50;10.87;;;10.70;99.90;;;;;;5064476;28;20959;-49
2022/01/01 03:54:20;;;;;;;15.30;10.40;;;10.60;99.90;;;;;;5057240;28;21948;-48
2022/01/01 03:56:46;;;;;;;21.33;12.77;;;10.60;99.90;;;;;;5056969;28;20513;-47
2022/01/01 03:59:14;;;;;;;15.43;10.30;;;10.50;99.90;;;;;;5061716;28;20482;-48
2022/01/01 04:01:40;;;;;;;19.00;11.53;;;10.50;99.90;;;;;;5056998;28;20915;-47
2022/01/01 04:04:08;;;;;;;20.53;12.43;;;10.50;99.90;;;;;;5063688;28;20493;-47
2022/01/01 04:06:35;;;;;;;22.90;12.80;;;10.50;99.90;;;;;;5071758;27;20550;-47
2022/01/01 04:09:01;;;;;;;19.30;12.40;;;10.50;99.90;;;;;;5083231;27;21930;-47
2022/01/01 04:11:28;;;;;;;12.60;9.90;;;10.50;99.90;;;;;;5073659;28;20492;-49
2022/01/01 04:13:55;;;;;;;19.37;12.17;;;10.50;99.90;;;;;;5081331;27;20916;-47
2022/01/01 04:16:23;;;;;;;17.10;10.33;;;10.50;99.90;;;;;;5079933;28;20492;-47
2022/01/01 04:18:50;;;;;;;16.70;11.60;;;10.60;99.90;;;;;;5059649;28;20480;-47
2022/01/01 04:21:18;;;;;;;15.20;10.07;;;10.60;99.90;;;;;;5057495;28;20551;-47
2022/01/01 04:23:46;;;;;;;21.63;11.73;;;10.60;99.90;;;;;;5059690;28;20498;-47
2022/01/01 04:26:13;;;;;;;21.10;11.30;;;10.60;99.90;;;;;;5057689;28;20481;-47
2022/01/01 04:28:40;;;;;;;17.03;11.70;;;10.70;99.90;;;;;;5058371;28;20486;-47
2022/01/01 04:31:07;;;;;;;17.83;12.07;;;10.60;99.90;;;;;;5057744;28;20989;-47
2022/01/01 04:33:34;;;;;;;25.13;14.00;;;10.60;99.90;;;;;;5057249;28;20908;-47
2022/01/01 04:36:00;;;;;;;21.53;13.03;;;10.50;99.90;;;;;;5078437;27;20529;-47
2022/01/01 04:38:37;;;;;;;16.50;11.50;;;10.50;99.90;;;;;;5068489;28;20492;-47
2022/01/01 04:41:04;;;;;;;22.67;12.67;;;10.50;99.90;;;;;;5072415;28;20937;-47
2022/01/01 04:43:31;;;;;;;16.87;11.00;;;10.60;99.90;;;;;;5080316;28;20473;-48
2022/01/01 04:45:58;;;;;;;20.20;12.10;;;10.60;99.90;;;;;;5078514;28;20506;-48
2022/01/01 04:48:25;;;;;;;18.50;12.70;;;10.60;99.90;;;;;;5074866;28;20489;-47
2022/01/01 04:50:52;;;;;;;18.07;9.70;;;10.50;99.90;;;;;;5079138;28;20997;-48
2022/01/01 04:53:19;;;;;;;21.03;11.50;;;10.60;99.90;;;;;;5076770;28;20477;-47
2022/01/01 04:55:47;;;;;;;19.47;12.00;;;10.60;99.90;;;;;;5077148;28;21050;-47
2022/01/01 04:58:14;;;;;;;20.80;11.40;;;10.60;99.90;;;;;;5080210;28;20911;-47
2022/01/01 05:00:42;;;;;;;22.83;11.30;;;10.60;99.90;;;;;;5075869;28;20476;-47
2022/01/01 05:03:09;;;;;;;21.43;11.77;;;10.60;99.90;;;;;;5083957;28;20472;-53
2022/01/01 05:05:36;;;;;;;28.93;13.80;;;10.60;99.90;;;;;;5081514;28;20485;-47
2022/01/01 05:08:02;;;;;;;18.90;12.10;;;10.60;99.90;;;;;;5078270;28;20485;-47
2022/01/01 05:10:29;;;;;;;21.23;13.60;;;10.60;99.90;;;;;;5068255;28;20529;-47
2022/01/01 05:12:57;;;;;;;22.67;13.20;;;10.60;99.90;;;;;;5103380;27;20538;-47
2022/01/01 05:15:24;;;;;;;21.43;12.93;;;10.60;99.90;;;;;;5075436;28;20484;-47
2022/01/01 05:17:50;;;;;;;31.63;14.20;;;10.60;99.90;;;;;;5082170;28;21022;-47
2022/01/01 05:20:17;;;;;;;20.73;12.40;;;10.70;99.90;;;;;;5077527;28;20485;-47
2022/01/01 05:22:44;;;;;;;23.07;13.83;;;10.70;99.90;;;;;;5070775;28;20540;-52
2022/01/01 05:25:11;;;;;;;20.03;13.40;;;10.70;99.90;;;;;;5103929;28;20974;-47
2022/01/01 05:27:38;;;;;;;23.20;14.00;;;10.70;99.90;;;;;;5071029;28;20473;-47
2022/01/01 05:30:08;;;;;;;25.30;14.40;;;10.70;99.90;;;;;;5086993;28;20486;-47
2022/01/01 05:32:34;;;;;;;20.27;12.93;;;10.70;99.90;;;;;;5068787;28;20482;-47
2022/01/01 05:35:01;;;;;;;21.10;12.67;;;10.70;99.90;;;;;;5092610;28;20900;-47
2022/01/01 05:37:28;;;;;;;20.37;11.53;;;10.70;99.90;;;;;;5069311;28;21084;-47
2022/01/01 05:39:55;;;;;;;16.47;11.67;;;10.80;99.90;;;;;;5087867;28;20487;-48
2022/01/01 05:42:21;;;;;;;17.20;10.80;;;10.80;99.90;;;;;;5076636;28;20487;-47
2022/01/01 05:44:48;;;;;;;20.70;12.10;;;10.90;99.90;;;;;;5065668;28;20543;-47
2022/01/01 05:47:16;;;;;;;18.43;10.93;;;10.90;99.90;;;;;;5075775;28;20538;-47
2022/01/01 05:49:43;;;;;;;15.67;10.33;;;10.90;99.90;;;;;;5077825;28;20485;-47
2022/01/01 05:52:10;;;;;;;22.87;10.90;;;10.90;99.90;;;;;;5081978;28;20514;-47
2022/01/01 05:54:37;;;;;;;18.90;11.47;;;10.90;99.90;;;;;;5076510;28;21278;-47
2022/01/01 05:57:04;;;;;;;16.83;9.70;;;10.90;99.90;;;;;;5073008;28;20613;-47
2022/01/01 05:59:31;;;;;;;17.77;9.27;;;10.90;99.90;;;;;;5083412;28;20521;-47
2022/01/01 06:01:57;;;;;;;13.87;10.03;;;10.90;99.90;;;;;;5076773;28;20892;-48
2022/01/01 06:04:25;;;;;;;20.23;11.40;;;10.90;99.90;;;;;;5073949;28;20477;-47
2022/01/01 06:06:52;;;;;;;14.10;9.87;;;11.00;99.90;;;;;;5076366;28;20487;-47
2022/01/01 06:09:19;;;;;;;16.70;10.90;;;11.00;99.90;;;;;;5079968;28;20485;-47
2022/01/01 06:11:45;;;;;;;15.43;11.30;;;11.00;99.90;;;;;;5077360;28;20985;-47
2022/01/01 06:14:12;;;;;;;16.83;10.63;;;10.90;99.90;;;;;;5097127;28;20504;-47
2022/01/01 06:16:39;;;;;;;17.60;10.63;;;10.90;99.90;;;;;;5084297;28;20477;-47
2022/01/01 06:19:06;;;;;;;15.93;11.13;;;10.90;99.90;;;;;;5082823;28;20483;-47
2022/01/01 06:21:34;;;;;;;15.50;9.90;;;10.90;99.90;;;;;;5080032;28;20589;-51
2022/01/01 06:24:00;;;;;;;21.10;10.93;;;10.90;99.90;;;;;;5075432;28;20481;-47
2022/01/01 06:26:27;;;;;;;16.43;9.57;;;10.80;99.90;;;;;;5075019;28;20950;-47
2022/01/01 06:28:54;;;;;;;17.23;11.40;;;10.80;99.90;;;;;;5089582;28;21238;-47
2022/01/01 06:31:20;;;;;;;21.43;12.10;;;10.70;99.90;;;;;;5078876;28;21248;-47
2022/01/01 06:33:47;;;;;;;13.67;10.70;;;10.60;99.90;;;;;;5082461;28;21099;-47
2022/01/01 06:36:15;;;;;;;11.90;8.60;;;10.60;99.90;;;;;;5079387;28;20940;-47
2022/01/01 06:38:44;;;;;;;16.30;10.00;;;10.70;99.90;;;;;;5081700;28;20851;-47
2022/01/01 06:41:12;;;;;;;15.83;10.00;;;10.70;99.90;;;;;;5077799;28;20530;-47
2022/01/01 06:43:39;;;;;;;16.47;8.70;;;10.80;99.90;;;;;;5081807;28;20473;-47
2022/01/01 06:46:07;;;;;;;11.40;8.57;;;10.90;99.90;;;;;;5068295;28;20966;-47
2022/01/01 06:48:34;;;;;;;17.17;9.60;;;11.00;99.90;;;;;;5083532;28;20479;-47
2022/01/01 06:51:01;;;;;;;12.90;8.93;;;11.10;99.90;;;;;;5101022;27;20487;-47
2022/01/01 06:53:28;;;;;;;13.67;9.50;;;11.20;99.90;;;;;;5075958;28;20496;-47
2022/01/01 06:55:56;;;;;;;15.87;10.30;;;11.30;99.90;;;;;;5070619;27;20485;-48
2022/01/01 06:58:23;;;;;;;14.60;10.70;;;11.30;99.90;;;;;;5059403;28;20488;-47
2022/01/01 07:00:49;;;;;;;15.17;9.87;;;11.30;99.90;;;;;;5078451;27;20526;-49
2022/01/01 07:03:22;;;;;;;14.40;9.37;;;11.30;99.90;;;;;;5093173;27;20926;-47
2022/01/01 07:05:48;;;;;;;14.43;9.70;;;11.30;99.90;;;;;;5077268;27;20478;-51
2022/01/01 07:08:15;;;;;;;13.70;9.60;;;11.20;99.90;;;;;;5081669;28;21172;-47
2022/01/01 07:10:44;;;;;;;14.70;9.20;;;11.20;99.90;;;;;;5084451;28;20833;-49
2022/01/01 07:13:12;;;;;;;15.47;9.93;;;11.20;99.90;;;;;;5072423;28;20582;-47
2022/01/01 07:15:39;;;;;;;20.67;9.33;;;11.10;99.90;;;;;;5103173;27;20473;-47
2022/01/01 07:18:06;;;;;;;13.57;7.93;;;11.10;99.90;;;;;;5076547;27;20524;-47
2022/01/01 07:20:33;;;;;;;10.23;8.30;;;11.10;99.90;;;;;;5077949;28;20971;-47
2022/01/01 07:23:00;;;;;;;13.70;9.40;;;11.10;99.90;;;;;;5078957;28;20493;-47
2022/01/01 07:25:27;;;;;;;16.70;8.50;;;11.10;99.90;;;;;;5080627;28;20533;-47
2022/01/01 07:27:53;;;;;;;15.83;9.13;;;11.20;99.90;;;;;;5078002;28;21006;-52
2022/01/01 07:30:21;;;;;;;10.90;8.00;;;11.30;99.90;;;;;;5091386;28;20481;-47
2022/01/01 07:32:49;;;;;;;13.60;9.20;;;11.20;99.90;;;;;;5083308;28;20483;-48
2022/01/01 07:35:18;;;;;;;11.00;8.77;;;11.10;99.90;;;;;;5087871;28;21165;-47
2022/01/01 07:37:44;;;;;;;18.90;10.23;;;11.10;99.90;;;;;;5079078;28;20489;-47
2022/01/01 07:40:15;;;;;;;15.17;8.73;;;11.10;99.90;;;;;;5080573;28;20991;-47
2022/01/01 07:42:42;;;;;;;14.03;9.60;;;11.10;99.90;;;;;;5081895;28;20481;-47
2022/01/01 07:45:11;;;;;;;13.87;8.90;;;11.10;99.90;;;;;;5075960;28;20478;-47
2022/01/01 07:47:39;;;;;;;14.93;9.37;;;11.20;99.90;;;;;;5077226;28;20488;-48
2022/01/01 07:50:07;;;;;;;14.27;9.13;;;11.20;99.90;;;;;;5074188;28;20865;-47
2022/01/01 07:52:34;;;;;;;14.63;9.50;;;11.30;99.90;;;;;;5077552;28;20542;-46
2022/01/01 07:55:01;;;;;;;10.30;8.20;;;11.30;99.90;;;;;;5082173;28;20901;-47
2022/01/01 07:57:27;;;;;;;10.97;8.77;;;11.30;99.90;;;;;;5071529;27;20534;-47
2022/01/01 07:59:54;;;;;;;9.70;7.07;;;11.40;99.90;;;;;;5094914;27;20483;-47
2022/01/01 08:02:21;;;;;;;12.30;7.80;;;11.40;99.90;;;;;;5066160;28;20481;-47
2022/01/01 08:04:49;;;;;;;12.20;7.40;;;11.40;99.90;;;;;;5085839;28;21063;-47
2022/01/01 08:07:16;;;;;;;12.50;9.13;;;11.50;99.90;;;;;;5083887;28;20528;-47
2022/01/01 08:09:43;;;;;;;12.27;8.67;;;11.40;99.90;;;;;;5073092;28;20871;-46
2022/01/01 08:12:11;;;;;;;10.67;8.20;;;11.40;99.90;;;;;;5075401;28;20534;-47
2022/01/01 08:14:37;;;;;;;11.70;8.40;;;11.40;99.90;;;;;;5075252;28;20559;-47
2022/01/01 08:17:06;;;;;;;15.73;8.70;;;11.50;99.90;;;;;;5072586;28;20479;-47
2022/01/01 08:19:34;;;;;;;13.10;8.37;;;11.50;99.90;;;;;;5077307;28;20481;-47
2022/01/01 08:22:03;;;;;;;11.27;7.67;;;11.60;99.90;;;;;;5081391;28;20947;-47
2022/01/01 08:24:29;;;;;;;8.03;7.20;;;11.60;99.90;;;;;;5073168;28;20563;-47
2022/01/01 08:26:57;;;;;;;16.90;9.33;;;11.70;99.90;;;;;;5083644;28;20494;-48
2022/01/01 08:29:24;;;;;;;19.17;8.80;;;11.70;99.90;;;;;;5073690;28;20560;-47
2022/01/01 08:31:51;;;;;;;12.90;9.00;;;11.80;99.90;;;;;;5071710;28;21103;-47
2022/01/01 08:34:19;;;;;;;15.60;8.20;;;11.90;99.90;;;;;;5072032;28;20546;-47
2022/01/01 08:36:46;;;;;;;13.73;8.37;;;11.90;99.90;;;;;;5068520;28;20485;-47
2022/01/01 08:39:15;;;;;;;8.87;7.77;;;11.90;99.90;;;;;;5076447;28;20471;-47
2022/01/01 08:41:42;;;;;;;17.87;8.83;;;12.00;99.90;;;;;;5072539;28;20485;-47
2022/01/01 08:44:09;;;;;;;12.83;8.70;;;12.00;99.90;;;;;;5075395;28;20475;-48
2022/01/01 08:46:35;;;;;;;11.97;8.30;;;12.10;99.90;;;;;;5069947;28;20545;-47
2022/01/01 08:49:03;;;;;;;8.17;7.37;;;12.20;99.90;;;;;;5095423;27;20484;-48
2022/01/01 08:51:30;;;;;;;14.03;7.40;;;12.30;99.90;;;;;;5077792;28;20481;-48
2022/01/01 08:53:57;;;;;;;9.83;8.27;;;12.40;99.90;;;;;;5076242;28;20483;-48
2022/01/01 08:56:25;;;;;;;11.43;7.63;;;12.40;99.90;;;;;;5067766;28;20479;-47
2022/01/01 08:58:53;;;;;;;16.97;7.77;;;12.40;99.90;;;;;;5071370;28;20477;-47
2022/01/01 09:01:20;;;;;;;13.53;7.63;;;12.40;99.90;;;;;;5062892;28;20975;-47
2022/01/01 09:03:47;;;;;;;12.83;7.80;;;12.40;99.90;;;;;;5074896;28;20490;-47
2022/01/01 09:06:13;;;;;;;14.70;7.10;;;12.40;99.90;;;;;;5073978;28;20479;-47
2022/01/01 09:08:43;;;;;;;9.60;7.67;;;12.50;99.90;;;;;;5066245;28;20519;-51
2022/01/01 09:11:11;;;;;;;8.30;7.10;;;12.50;99.90;;;;;;5066136;28;20485;-47
2022/01/01 09:13:42;;;;;;;8.93;6.60;;;12.60;99.90;;;;;;5063862;28;20494;-48
2022/01/01 09:16:10;;;;;;;8.90;6.63;;;12.60;99.90;;;;;;5070530;28;20938;-48
2022/01/01 09:18:38;;;;;;;11.00;7.37;;;12.70;99.90;;;;;;5072209;28;20564;-53
2022/01/01 09:21:05;;;;;;;11.50;8.20;;;12.80;99.90;;;;;;5079929;28;20570;-47
2022/01/01 09:23:32;;;;;;;10.07;8.07;;;12.90;99.90;;;;;;5079705;28;20788;-47
2022/01/01 09:26:00;;;;;;;7.93;6.70;;;13.20;99.90;;;;;;5060730;28;20540;-48
2022/01/01 09:28:27;;;;;;;10.70;6.13;;;13.50;99.90;;;;;;5070496;28;20544;-48
2022/01/01 09:30:55;;;;;;;9.53;6.30;;;13.70;99.90;;;;;;5067961;28;20900;-48
2022/01/01 09:33:23;;;;;;;6.47;5.40;;;14.20;99.90;;;;;;5070834;28;20970;-48
2022/01/01 09:35:50;;;;;;;6.17;5.57;;;14.60;99.90;;;;;;5065540;28;20519;-49
2022/01/01 09:38:17;;;;;;;7.30;5.83;;;14.90;99.90;;;;;;5064553;28;20522;-48
2022/01/01 09:40:44;;;;;;;10.13;5.97;;;15.20;99.90;;;;;;5069320;28;20902;-48
2022/01/01 09:43:12;;;;;;;5.53;5.03;;;15.20;99.90;;;;;;5070799;28;20968;-48
2022/01/01 09:45:40;;;;;;;8.37;6.30;;;15.00;99.90;;;;;;5073721;28;20478;-48
2022/01/01 09:48:09;;;;;;;9.10;6.00;;;14.80;99.90;;;;;;5079974;28;20519;-48
2022/01/01 09:50:36;;;;;;;10.17;6.33;;;14.80;99.90;;;;;;5068659;28;20484;-48
2022/01/01 09:53:03;;;;;;;8.40;5.43;;;14.80;99.90;;;;;;5059981;28;21045;-48
2022/01/01 09:55:30;;;;;;;9.30;6.23;;;14.80;99.90;;;;;;5088382;28;20486;-48
2022/01/01 09:57:57;;;;;;;7.60;6.80;;;15.00;99.90;;;;;;5064802;28;21016;-48
2022/01/01 10:00:23;;;;;;;7.50;5.93;;;15.00;99.90;;;;;;5071428;28;20492;-52
2022/01/01 10:02:50;;;;;;;7.97;6.40;;;15.10;99.90;;;;;;5081847;28;20484;-48
2022/01/01 10:05:18;;;;;;;9.57;6.40;;;15.00;99.90;;;;;;5079156;28;20489;-48
2022/01/01 10:07:45;;;;;;;8.77;7.73;;;15.00;99.90;;;;;;5084700;28;20518;-48
2022/01/01 10:10:20;;;;;;;13.80;7.43;;;15.00;99.90;;;;;;5071847;28;20508;-48
2022/01/01 10:12:48;;;;;;;7.63;6.00;;;14.90;99.90;;;;;;5079945;28;20552;-48
2022/01/01 10:15:15;;;;;;;8.40;6.93;;;15.10;99.90;;;;;;5073505;28;20499;-48
2022/01/01 10:17:42;;;;;;;6.73;6.13;;;15.20;99.90;;;;;;5080189;28;20487;-48
2022/01/01 10:20:10;;;;;;;6.20;5.60;;;15.30;99.90;;;;;;5065734;28;20501;-48
2022/01/01 10:22:39;;;;;;;6.77;6.07;;;15.20;99.90;;;;;;5074905;28;21162;-48
2022/01/01 10:27:54;;;;;;;10.10;6.13;;;15.20;99.90;;;;;;5072222;28;20550;-47
2022/01/01 10:30:24;;;;;;;6.77;5.50;;;15.00;99.90;;;;;;5070630;28;20964;-48
2022/01/01 10:33:01;;;;;;;12.57;6.30;;;15.00;99.90;;;;;;5074274;28;20480;-48
2022/01/01 10:35:29;;;;;;;11.00;6.20;;;15.00;99.90;;;;;;5074560;28;20538;-48
2022/01/01 10:37:58;;;;;;;10.30;6.53;;;14.90;99.90;;;;;;5082674;28;20485;-49
2022/01/01 10:40:26;;;;;;;9.73;5.87;;;15.00;99.90;;;;;;5065550;28;20488;-48
2022/01/01 10:42:53;;;;;;;10.17;7.00;;;15.10;99.90;;;;;;5069747;28;20566;-48
2022/01/01 10:45:30;;;;;;;12.27;7.17;;;15.10;99.90;;;;;;5086767;28;20472;-48
2022/01/01 10:48:05;;;;;;;5.87;5.37;;;15.20;99.90;;;;;;5079849;28;20462;-48
2022/01/01 10:50:33;;;;;;;6.90;5.60;;;15.30;99.90;;;;;;5082079;28;20496;-48
2022/01/01 10:53:12;;;;;;;6.60;5.60;;;15.40;99.90;;;;;;5070428;28;21439;-48
2022/01/01 10:55:44;;;;;;;9.30;6.50;;;15.70;99.90;;;;;;5083141;28;20497;-48
2022/01/01 10:58:17;;;;;;;7.83;5.90;;;15.80;99.90;;;;;;5061596;28;20488;-48
2022/01/01 11:00:44;;;;;;;6.13;4.87;;;15.90;99.90;;;;;;5058741;28;20484;-51
2022/01/01 11:03:16;;;;;;;5.67;5.10;;;15.90;99.90;;;;;;5080569;28;21696;-48
2022/01/01 11:05:44;;;;;;;7.20;5.43;;;15.80;99.90;;;;;;5077073;28;20494;-48
2022/01/01 11:08:13;;;;;;;8.40;5.40;;;15.60;99.90;;;;;;5074204;28;20533;-48
2022/01/01 11:10:42;;;;;;;6.80;4.47;;;15.50;99.90;;;;;;5078239;28;21085;-48
2022/01/01 11:13:10;;;;;;;9.80;4.90;;;15.60;99.90;;;;;;5078901;28;20444;-48
2022/01/01 11:15:36;;;;;;;5.23;4.63;;;15.50;99.90;;;;;;5071165;28;20488;-48
2022/01/01 11:18:04;;;;;;;10.03;5.03;;;15.60;99.90;;;;;;5071620;28;20503;-47
2022/01/01 11:20:35;;;;;;;5.40;4.10;;;15.70;99.90;;;;;;5067253;28;20837;-48
2022/01/01 11:23:08;;;;;;;4.90;4.37;;;15.90;99.90;;;;;;5078953;28;20564;-47
2022/01/01 11:25:38;;;;;;;9.23;4.40;;;16.00;99.90;;;;;;5069044;28;20505;-48
2022/01/01 11:28:07;;;;;;;8.40;5.00;;;16.20;99.90;;;;;;5085453;28;20494;-48
2022/01/01 11:30:37;;;;;;;5.10;4.50;;;16.30;99.90;;;;;;5071533;28;21058;-48
2022/01/01 11:33:07;;;;;;;6.30;4.40;;;16.50;99.90;;;;;;5075495;28;20553;-48
2022/01/01 11:35:35;;;;;;;7.20;5.00;;;16.60;99.90;;;;;;5074805;28;20491;-49
2022/01/01 11:38:05;;;;;;;8.23;4.93;;;16.70;99.90;;;;;;5077636;28;20485;-48
2022/01/01 11:40:43;;;;;;;5.67;3.80;;;16.70;99.90;;;;;;5080309;28;20478;-49
2022/01/01 11:43:40;;;;;;;4.50;4.10;;;16.60;99.90;;;;;;5075554;28;20535;-48
2022/01/01 11:46:11;;;;;;;10.00;5.10;;;16.50;99.90;;;;;;5076728;28;20478;-49
2022/01/01 11:48:49;;;;;;;5.93;4.53;;;16.40;99.90;;;;;;5070815;28;21221;-48
2022/01/01 11:51:35;;;;;;;8.80;4.53;;;16.30;99.90;;;;;;5083519;27;20812;-48
2022/01/01 11:54:26;;;;;;;10.53;4.60;;;16.30;99.90;;;;;;5092636;27;20476;-48
2022/01/01 11:57:07;;;;;;;5.80;4.17;;;16.10;99.90;;;;;;5077772;28;20481;-48
2022/01/01 11:59:44;;;;;;;3.87;3.37;;;16.10;99.90;;;;;;5057470;28;20473;-48
2022/01/01 12:02:30;;;;;;;8.10;3.37;;;16.10;99.90;;;;;;5060945;28;20584;-49
2022/01/01 12:05:09;;;;;;;5.03;3.30;;;16.10;99.90;;;;;;5056770;28;20601;-49
2022/01/01 12:07:47;;;;;;;5.43;2.80;;;16.10;99.90;;;;;;5072236;28;20465;-48
2022/01/01 12:10:19;;;;;;;3.93;3.13;;;16.10;99.90;;;;;;5062507;28;20457;-48
2022/01/01 12:12:49;;;;;;;10.83;3.07;;;16.10;99.90;;;;;;5049883;28;20484;-48
2022/01/01 12:15:32;;;;;;;3.03;2.33;;;16.30;99.90;;;;;;5104367;27;20627;-49
2022/01/01 12:18:01;;;;;;;3.73;2.77;;;16.50;99.90;;;;;;5071165;28;20554;-47
2022/01/01 12:20:30;;;;;;;3.90;2.63;;;16.60;99.90;;;;;;5072122;28;20464;-49
2022/01/01 12:22:59;;;;;;;3.60;2.43;;;16.80;99.90;;;;;;5064999;28;21006;-49
2022/01/01 12:25:29;;;;;;;3.10;2.53;;;16.90;99.90;;;;;;5077916;28;20490;-48
2022/01/01 12:27:59;;;;;;;4.00;3.00;;;17.10;99.90;;;;;;5066774;28;20961;-50
2022/01/01 12:30:40;;;;;;;5.20;3.93;;;17.30;99.90;;;;;;5068947;28;20496;-48
2022/01/01 12:33:09;;;;;;;3.60;3.30;;;17.30;99.70;;;;;;5077697;28;20481;-49
2022/01/01 12:35:43;;;;;;;3.90;2.73;;;17.20;99.90;;;;;;5071576;28;20464;-48
2022/01/01 12:38:12;;;;;;;4.17;3.23;;;17.20;99.80;;;;;;5072333;28;20457;-48
2022/01/01 12:40:55;;;;;;;4.13;3.43;;;17.10;99.80;;;;;;5069991;28;20478;-48